sensor_id;sensor_type;location;lat;lon;timestamp;pressure;altitude;pressure_sealevel;temperature;humidity
10658;BME280;5377;43.276;26.930;2023-04-07T00:00:41;98811.56;;;6.14;58.98
10658;BME280;5377;43.276;26.930;2023-04-07T00:03:08;98812.94;;;6.10;58.98
10658;BME280;5377;43.276;26.930;2023-04-07T00:05:37;98813.31;;;6.07;58.84
10658;BME280;5377;43.276;26.930;2023-04-07T00:08:04;98804.78;;;5.97;58.92
10658;BME280;5377;43.276;26.930;2023-04-07T00:10:31;98811.00;;;6.04;58.57
10658;BME280;5377;43.276;26.930;2023-04-07T00:12:57;98807.72;;;6.02;58.66
10658;BME280;5377;43.276;26.930;2023-04-07T00:15:25;98803.50;;;6.08;58.22
10658;BME280;5377;43.276;26.930;2023-04-07T00:17:51;98800.47;;;5.96;58.70
10658;BME280;5377;43.276;26.930;2023-04-07T00:20:18;98800.38;;;6.04;59.20
10658;BME280;5377;43.276;26.930;2023-04-07T00:22:46;98814.69;;;6.03;57.98
10658;BME280;5377;43.276;26.930;2023-04-07T00:25:13;98799.81;;;5.94;58.76
10658;BME280;5377;43.276;26.930;2023-04-07T00:27:40;98797.44;;;5.99;58.90
10658;BME280;5377;43.276;26.930;2023-04-07T00:30:07;98805.69;;;6.04;58.42
10658;BME280;5377;43.276;26.930;2023-04-07T00:32:35;98813.84;;;6.03;59.02
10658;BME280;5377;43.276;26.930;2023-04-07T00:35:01;98815.03;;;6.00;58.81
10658;BME280;5377;43.276;26.930;2023-04-07T00:37:28;98799.91;;;6.01;58.74
10658;BME280;5377;43.276;26.930;2023-04-07T00:39:56;98821.66;;;6.04;58.29
10658;BME280;5377;43.276;26.930;2023-04-07T00:42:23;98808.34;;;6.04;58.59
10658;BME280;5377;43.276;26.930;2023-04-07T00:44:50;98813.63;;;5.89;58.67
10658;BME280;5377;43.276;26.930;2023-04-07T00:47:17;98820.53;;;5.99;57.47
10658;BME280;5377;43.276;26.930;2023-04-07T00:49:44;98811.19;;;5.80;57.79
10658;BME280;5377;43.276;26.930;2023-04-07T00:52:11;98816.69;;;6.01;57.95
10658;BME280;5377;43.276;26.930;2023-04-07T00:54:39;98814.59;;;5.97;57.66
10658;BME280;5377;43.276;26.930;2023-04-07T00:57:08;98810.97;;;5.89;57.72
10658;BME280;5377;43.276;26.930;2023-04-07T00:59:35;98805.31;;;5.92;58.00
10658;BME280;5377;43.276;26.930;2023-04-07T01:02:15;98812.94;;;5.96;57.95
10658;BME280;5377;43.276;26.930;2023-04-07T01:04:46;98799.47;;;5.89;57.78
10658;BME280;5377;43.276;26.930;2023-04-07T01:07:21;98814.03;;;6.01;57.33
10658;BME280;5377;43.276;26.930;2023-04-07T01:09:54;98808.72;;;6.01;57.75
10658;BME280;5377;43.276;26.930;2023-04-07T01:12:28;98815.31;;;6.05;57.53
10658;BME280;5377;43.276;26.930;2023-04-07T01:15:04;98815.78;;;6.09;57.76
10658;BME280;5377;43.276;26.930;2023-04-07T01:17:33;98813.03;;;6.02;57.43
10658;BME280;5377;43.276;26.930;2023-04-07T01:20:01;98812.84;;;6.04;57.16
10658;BME280;5377;43.276;26.930;2023-04-07T01:22:35;98819.53;;;6.00;58.01
10658;BME280;5377;43.276;26.930;2023-04-07T01:25:22;98822.75;;;5.95;57.74
10658;BME280;5377;43.276;26.930;2023-04-07T01:28:10;98816.44;;;5.88;57.76
10658;BME280;5377;43.276;26.930;2023-04-07T01:30:42;98822.94;;;5.85;58.36
10658;BME280;5377;43.276;26.930;2023-04-07T01:33:11;98827.31;;;5.78;58.07
10658;BME280;5377;43.276;26.930;2023-04-07T01:35:40;98836.13;;;5.79;57.95
10658;BME280;5377;43.276;26.930;2023-04-07T01:38:08;98825.66;;;5.77;58.88
10658;BME280;5377;43.276;26.930;2023-04-07T01:40:37;98826.78;;;5.83;59.21
10658;BME280;5377;43.276;26.930;2023-04-07T01:43:05;98823.75;;;5.86;58.83
10658;BME280;5377;43.276;26.930;2023-04-07T01:45:34;98822.47;;;5.82;58.21
10658;BME280;5377;43.276;26.930;2023-04-07T01:48:04;98828.91;;;5.87;58.57
10658;BME280;5377;43.276;26.930;2023-04-07T01:50:32;98835.38;;;5.93;59.29
10658;BME280;5377;43.276;26.930;2023-04-07T01:52:59;98830.06;;;5.93;59.51
10658;BME280;5377;43.276;26.930;2023-04-07T01:55:27;98823.09;;;5.92;58.83
10658;BME280;5377;43.276;26.930;2023-04-07T01:57:54;98830.72;;;5.87;58.88
10658;BME280;5377;43.276;26.930;2023-04-07T02:00:21;98838.69;;;5.95;58.69
10658;BME280;5377;43.276;26.930;2023-04-07T02:02:51;98824.75;;;5.93;58.80
10658;BME280;5377;43.276;26.930;2023-04-07T02:05:22;98830.44;;;6.05;58.14
10658;BME280;5377;43.276;26.930;2023-04-07T02:07:53;98829.25;;;6.07;58.52
10658;BME280;5377;43.276;26.930;2023-04-07T02:10:23;98828.50;;;5.99;58.45
10658;BME280;5377;43.276;26.930;2023-04-07T02:12:51;98834.00;;;5.97;58.62
10658;BME280;5377;43.276;26.930;2023-04-07T02:15:19;98832.56;;;6.09;58.53
10658;BME280;5377;43.276;26.930;2023-04-07T02:17:50;98834.66;;;6.14;58.96
10658;BME280;5377;43.276;26.930;2023-04-07T02:20:19;98832.56;;;6.24;58.13
10658;BME280;5377;43.276;26.930;2023-04-07T02:22:47;98830.81;;;6.16;58.58
10658;BME280;5377;43.276;26.930;2023-04-07T02:25:21;98831.47;;;6.18;58.54
10658;BME280;5377;43.276;26.930;2023-04-07T02:27:48;98820.81;;;6.18;57.95
10658;BME280;5377;43.276;26.930;2023-04-07T02:30:15;98836.13;;;6.16;57.43
10658;BME280;5377;43.276;26.930;2023-04-07T02:32:42;98836.69;;;6.12;58.04
10658;BME280;5377;43.276;26.930;2023-04-07T02:35:09;98832.91;;;6.06;57.78
10658;BME280;5377;43.276;26.930;2023-04-07T02:37:36;98835.84;;;6.11;58.04
10658;BME280;5377;43.276;26.930;2023-04-07T02:40:06;98832.84;;;6.14;56.86
10658;BME280;5377;43.276;26.930;2023-04-07T02:42:33;98845.59;;;6.19;57.24
10658;BME280;5377;43.276;26.930;2023-04-07T02:45:00;98842.00;;;6.12;56.72
10658;BME280;5377;43.276;26.930;2023-04-07T02:47:27;98842.56;;;6.07;57.72
10658;BME280;5377;43.276;26.930;2023-04-07T02:49:54;98842.91;;;6.04;57.12
10658;BME280;5377;43.276;26.930;2023-04-07T02:52:21;98846.94;;;6.00;57.32
10658;BME280;5377;43.276;26.930;2023-04-07T02:54:48;98819.44;;;5.93;57.00
10658;BME280;5377;43.276;26.930;2023-04-07T02:57:16;98845.31;;;6.14;56.85
10658;BME280;5377;43.276;26.930;2023-04-07T02:59:43;98840.44;;;6.17;57.04
10658;BME280;5377;43.276;26.930;2023-04-07T03:02:09;98855.03;;;6.21;56.58
10658;BME280;5377;43.276;26.930;2023-04-07T03:04:36;98851.47;;;6.29;55.82
10658;BME280;5377;43.276;26.930;2023-04-07T03:07:03;98846.88;;;6.23;56.68
10658;BME280;5377;43.276;26.930;2023-04-07T03:09:30;98842.56;;;6.22;56.94
10658;BME280;5377;43.276;26.930;2023-04-07T03:11:56;98850.28;;;6.32;56.18
10658;BME280;5377;43.276;26.930;2023-04-07T03:14:25;98848.28;;;6.34;55.90
10658;BME280;5377;43.276;26.930;2023-04-07T03:16:52;98847.34;;;6.27;56.11
10658;BME280;5377;43.276;26.930;2023-04-07T03:19:19;98853.97;;;6.31;55.89
10658;BME280;5377;43.276;26.930;2023-04-07T03:21:45;98854.69;;;6.24;56.74
10658;BME280;5377;43.276;26.930;2023-04-07T03:24:12;98856.16;;;6.27;56.01
10658;BME280;5377;43.276;26.930;2023-04-07T03:26:39;98859.06;;;6.17;56.10
10658;BME280;5377;43.276;26.930;2023-04-07T03:29:06;98855.41;;;6.18;55.43
10658;BME280;5377;43.276;26.930;2023-04-07T03:31:34;98854.47;;;6.11;56.75
10658;BME280;5377;43.276;26.930;2023-04-07T03:34:02;98861.00;;;6.23;56.43
10658;BME280;5377;43.276;26.930;2023-04-07T03:36:28;98858.00;;;6.27;56.57
10658;BME280;5377;43.276;26.930;2023-04-07T03:38:56;98864.31;;;6.25;55.79
10658;BME280;5377;43.276;26.930;2023-04-07T03:41:23;98860.16;;;6.23;55.40
10658;BME280;5377;43.276;26.930;2023-04-07T03:43:49;98865.34;;;6.24;56.08
10658;BME280;5377;43.276;26.930;2023-04-07T03:46:18;98871.34;;;6.18;55.75
10658;BME280;5377;43.276;26.930;2023-04-07T03:48:46;98878.53;;;6.33;55.35
10658;BME280;5377;43.276;26.930;2023-04-07T03:51:13;98877.63;;;6.25;55.60
10658;BME280;5377;43.276;26.930;2023-04-07T03:53:41;98874.03;;;6.33;54.62
10658;BME280;5377;43.276;26.930;2023-04-07T03:56:08;98877.25;;;6.29;54.86
10658;BME280;5377;43.276;26.930;2023-04-07T03:58:35;98884.09;;;6.23;55.97
10658;BME280;5377;43.276;26.930;2023-04-07T04:01:02;98882.56;;;6.29;55.39
10658;BME280;5377;43.276;26.930;2023-04-07T04:03:29;98888.53;;;6.31;54.97
10658;BME280;5377;43.276;26.930;2023-04-07T04:05:57;98891.56;;;6.28;54.87
10658;BME280;5377;43.276;26.930;2023-04-07T04:08:24;98869.03;;;6.01;55.09
10658;BME280;5377;43.276;26.930;2023-04-07T04:10:50;98899.59;;;6.19;55.46
10658;BME280;5377;43.276;26.930;2023-04-07T04:13:17;98902.25;;;6.19;55.08
10658;BME280;5377;43.276;26.930;2023-04-07T04:15:44;98905.88;;;6.27;54.59
10658;BME280;5377;43.276;26.930;2023-04-07T04:18:11;98898.41;;;6.22;54.61
10658;BME280;5377;43.276;26.930;2023-04-07T04:20:38;98905.13;;;6.33;54.73
10658;BME280;5377;43.276;26.930;2023-04-07T04:23:06;98913.66;;;6.28;55.48
10658;BME280;5377;43.276;26.930;2023-04-07T04:25:33;98919.91;;;6.35;54.61
10658;BME280;5377;43.276;26.930;2023-04-07T04:27:59;98912.03;;;6.42;54.62
10658;BME280;5377;43.276;26.930;2023-04-07T04:30:26;98914.22;;;6.53;55.70
10658;BME280;5377;43.276;26.930;2023-04-07T04:32:53;98908.72;;;6.54;55.42
10658;BME280;5377;43.276;26.930;2023-04-07T04:35:20;98900.28;;;6.51;54.89
10658;BME280;5377;43.276;26.930;2023-04-07T04:37:47;98915.44;;;6.65;54.79
10658;BME280;5377;43.276;26.930;2023-04-07T04:40:15;98918.53;;;6.54;54.64
10658;BME280;5377;43.276;26.930;2023-04-07T04:42:42;98919.72;;;6.51;55.01
10658;BME280;5377;43.276;26.930;2023-04-07T04:45:09;98925.50;;;6.55;54.44
10658;BME280;5377;43.276;26.930;2023-04-07T04:47:36;98923.78;;;6.47;55.21
10658;BME280;5377;43.276;26.930;2023-04-07T04:50:05;98926.25;;;6.49;54.95
10658;BME280;5377;43.276;26.930;2023-04-07T04:52:32;98933.13;;;6.43;55.79
10658;BME280;5377;43.276;26.930;2023-04-07T04:54:58;98940.09;;;6.44;55.75
10658;BME280;5377;43.276;26.930;2023-04-07T04:57:27;98939.72;;;6.47;56.33
10658;BME280;5377;43.276;26.930;2023-04-07T04:59:53;98948.63;;;6.40;56.97
10658;BME280;5377;43.276;26.930;2023-04-07T05:02:20;98940.19;;;6.51;57.52
10658;BME280;5377;43.276;26.930;2023-04-07T05:04:47;98945.44;;;6.59;57.63
10658;BME280;5377;43.276;26.930;2023-04-07T05:07:14;98944.63;;;6.73;57.76
10658;BME280;5377;43.276;26.930;2023-04-07T05:09:40;98948.56;;;6.77;57.11
10658;BME280;5377;43.276;26.930;2023-04-07T05:12:07;98946.72;;;6.93;58.55
10658;BME280;5377;43.276;26.930;2023-04-07T05:14:35;98967.13;;;6.71;56.98
10658;BME280;5377;43.276;26.930;2023-04-07T05:17:02;98953.63;;;6.87;57.16
10658;BME280;5377;43.276;26.930;2023-04-07T05:19:29;98939.75;;;6.92;56.06
10658;BME280;5377;43.276;26.930;2023-04-07T05:21:56;98938.03;;;6.99;56.25
10658;BME280;5377;43.276;26.930;2023-04-07T05:24:25;98950.50;;;7.13;56.31
10658;BME280;5377;43.276;26.930;2023-04-07T05:26:52;98952.69;;;7.24;56.01
10658;BME280;5377;43.276;26.930;2023-04-07T05:29:19;98960.50;;;7.26;55.09
10658;BME280;5377;43.276;26.930;2023-04-07T05:31:47;98951.84;;;7.38;54.11
10658;BME280;5377;43.276;26.930;2023-04-07T05:34:14;98954.03;;;7.49;53.40
10658;BME280;5377;43.276;26.930;2023-04-07T05:36:41;98950.47;;;7.42;53.66
10658;BME280;5377;43.276;26.930;2023-04-07T05:39:07;98959.44;;;7.56;54.81
10658;BME280;5377;43.276;26.930;2023-04-07T05:41:34;98958.13;;;7.67;53.85
10658;BME280;5377;43.276;26.930;2023-04-07T05:44:02;98954.16;;;7.63;53.02
10658;BME280;5377;43.276;26.930;2023-04-07T05:46:28;98955.41;;;7.81;52.64
10658;BME280;5377;43.276;26.930;2023-04-07T05:48:56;98960.13;;;7.79;53.87
10658;BME280;5377;43.276;26.930;2023-04-07T05:51:23;98954.22;;;7.84;52.57
10658;BME280;5377;43.276;26.930;2023-04-07T05:53:50;98954.66;;;7.88;51.12
10658;BME280;5377;43.276;26.930;2023-04-07T05:56:17;98947.06;;;8.06;49.84
10658;BME280;5377;43.276;26.930;2023-04-07T05:58:44;98948.44;;;8.23;48.78
10658;BME280;5377;43.276;26.930;2023-04-07T06:01:11;98956.88;;;8.27;48.41
10658;BME280;5377;43.276;26.930;2023-04-07T06:03:37;98961.41;;;8.48;48.98
10658;BME280;5377;43.276;26.930;2023-04-07T06:06:08;98972.50;;;8.51;47.99
10658;BME280;5377;43.276;26.930;2023-04-07T06:08:34;98964.47;;;8.72;48.07
10658;BME280;5377;43.276;26.930;2023-04-07T06:11:01;98966.00;;;8.60;46.61
10658;BME280;5377;43.276;26.930;2023-04-07T06:13:28;98973.50;;;8.71;47.69
10658;BME280;5377;43.276;26.930;2023-04-07T06:15:55;98963.81;;;8.42;46.74
10658;BME280;5377;43.276;26.930;2023-04-07T06:18:22;98972.06;;;8.48;46.67
10658;BME280;5377;43.276;26.930;2023-04-07T06:20:49;98972.13;;;8.54;47.25
10658;BME280;5377;43.276;26.930;2023-04-07T06:23:17;98963.88;;;8.77;46.77
10658;BME280;5377;43.276;26.930;2023-04-07T06:25:44;98966.34;;;8.79;46.32
10658;BME280;5377;43.276;26.930;2023-04-07T06:28:10;98976.25;;;8.85;45.54
10658;BME280;5377;43.276;26.930;2023-04-07T06:30:37;98974.41;;;8.85;44.54
10658;BME280;5377;43.276;26.930;2023-04-07T06:33:05;98973.19;;;8.88;45.92
10658;BME280;5377;43.276;26.930;2023-04-07T06:35:32;98973.91;;;9.03;45.47
10658;BME280;5377;43.276;26.930;2023-04-07T06:37:59;98980.81;;;9.25;45.72
10658;BME280;5377;43.276;26.930;2023-04-07T06:40:27;98985.34;;;9.31;44.56
10658;BME280;5377;43.276;26.930;2023-04-07T06:42:54;98989.22;;;9.22;43.89
10658;BME280;5377;43.276;26.930;2023-04-07T06:45:21;98987.00;;;9.32;43.09
10658;BME280;5377;43.276;26.930;2023-04-07T06:47:48;98993.22;;;9.40;43.05
10658;BME280;5377;43.276;26.930;2023-04-07T06:50:15;98990.56;;;9.40;42.92
10658;BME280;5377;43.276;26.930;2023-04-07T06:52:45;98986.38;;;9.30;42.86
10658;BME280;5377;43.276;26.930;2023-04-07T06:55:11;98988.38;;;9.15;43.30
10658;BME280;5377;43.276;26.930;2023-04-07T06:57:40;98993.94;;;9.20;44.42
10658;BME280;5377;43.276;26.930;2023-04-07T07:00:07;98996.44;;;9.28;43.08
10658;BME280;5377;43.276;26.930;2023-04-07T07:02:35;99000.56;;;9.31;43.43
10658;BME280;5377;43.276;26.930;2023-04-07T07:05:02;98995.72;;;9.41;42.89
10658;BME280;5377;43.276;26.930;2023-04-07T07:07:29;98999.63;;;9.04;42.79
10658;BME280;5377;43.276;26.930;2023-04-07T07:09:56;99002.34;;;9.17;42.23
10658;BME280;5377;43.276;26.930;2023-04-07T07:12:22;98997.56;;;9.06;42.78
10658;BME280;5377;43.276;26.930;2023-04-07T07:14:51;99008.16;;;9.27;43.38
10658;BME280;5377;43.276;26.930;2023-04-07T07:17:17;99011.16;;;9.52;42.27
10658;BME280;5377;43.276;26.930;2023-04-07T07:19:44;99014.69;;;9.59;42.29
10658;BME280;5377;43.276;26.930;2023-04-07T07:22:11;99016.09;;;9.49;41.82
10658;BME280;5377;43.276;26.930;2023-04-07T07:24:38;99019.16;;;9.46;41.57
10658;BME280;5377;43.276;26.930;2023-04-07T07:27:05;99018.69;;;9.35;42.24
10658;BME280;5377;43.276;26.930;2023-04-07T07:29:31;99018.75;;;9.42;42.04
10658;BME280;5377;43.276;26.930;2023-04-07T07:32:00;99027.03;;;9.60;42.25
10658;BME280;5377;43.276;26.930;2023-04-07T07:34:26;99011.31;;;9.85;41.22
10658;BME280;5377;43.276;26.930;2023-04-07T07:36:53;99010.09;;;10.01;41.28
10658;BME280;5377;43.276;26.930;2023-04-07T07:39:20;99021.06;;;10.13;40.40
10658;BME280;5377;43.276;26.930;2023-04-07T07:41:47;99020.34;;;10.58;40.56
10658;BME280;5377;43.276;26.930;2023-04-07T07:44:15;99021.16;;;10.92;40.45
10658;BME280;5377;43.276;26.930;2023-04-07T07:46:41;98990.00;;;11.11;39.70
10658;BME280;5377;43.276;26.930;2023-04-07T07:49:09;99009.47;;;11.57;40.05
10658;BME280;5377;43.276;26.930;2023-04-07T07:51:36;99012.53;;;11.61;38.67
10658;BME280;5377;43.276;26.930;2023-04-07T07:54:03;99010.22;;;11.84;39.06
10658;BME280;5377;43.276;26.930;2023-04-07T07:56:30;99012.28;;;11.82;37.17
10658;BME280;5377;43.276;26.930;2023-04-07T07:58:57;99017.19;;;11.21;37.72
10658;BME280;5377;43.276;26.930;2023-04-07T08:01:23;99017.91;;;11.61;37.14
10658;BME280;5377;43.276;26.930;2023-04-07T08:03:50;99016.88;;;11.62;37.44
10658;BME280;5377;43.276;26.930;2023-04-07T08:06:18;99012.69;;;11.79;37.56
10658;BME280;5377;43.276;26.930;2023-04-07T08:08:46;99009.19;;;11.72;37.82
10658;BME280;5377;43.276;26.930;2023-04-07T08:11:13;99013.16;;;12.14;39.43
10658;BME280;5377;43.276;26.930;2023-04-07T08:13:39;99003.31;;;12.90;37.82
10658;BME280;5377;43.276;26.930;2023-04-07T08:16:09;98999.28;;;13.24;35.84
10658;BME280;5377;43.276;26.930;2023-04-07T08:18:36;99003.09;;;13.34;35.18
10658;BME280;5377;43.276;26.930;2023-04-07T08:21:03;98993.75;;;13.37;34.84
10658;BME280;5377;43.276;26.930;2023-04-07T08:23:32;99009.44;;;13.58;35.36
10658;BME280;5377;43.276;26.930;2023-04-07T08:25:59;98998.91;;;14.05;36.71
10658;BME280;5377;43.276;26.930;2023-04-07T08:28:25;99002.16;;;14.25;35.68
10658;BME280;5377;43.276;26.930;2023-04-07T08:30:52;99005.50;;;14.21;35.03
10658;BME280;5377;43.276;26.930;2023-04-07T08:33:19;99003.97;;;14.43;34.71
10658;BME280;5377;43.276;26.930;2023-04-07T08:35:46;99008.56;;;14.54;34.51
10658;BME280;5377;43.276;26.930;2023-04-07T08:38:12;99005.50;;;14.51;34.23
10658;BME280;5377;43.276;26.930;2023-04-07T08:40:41;99007.19;;;13.92;34.76
10658;BME280;5377;43.276;26.930;2023-04-07T08:43:09;99007.72;;;14.12;34.74
10658;BME280;5377;43.276;26.930;2023-04-07T08:45:38;99011.28;;;13.94;34.43
10658;BME280;5377;43.276;26.930;2023-04-07T08:48:12;99015.88;;;13.57;35.20
10658;BME280;5377;43.276;26.930;2023-04-07T08:50:43;99014.91;;;13.08;35.23
10658;BME280;5377;43.276;26.930;2023-04-07T08:53:11;99021.38;;;13.44;34.63
10658;BME280;5377;43.276;26.930;2023-04-07T08:55:40;99015.78;;;13.02;36.48
10658;BME280;5377;43.276;26.930;2023-04-07T08:58:09;99016.53;;;12.91;34.93
10658;BME280;5377;43.276;26.930;2023-04-07T09:00:38;99020.78;;;12.74;35.50
10658;BME280;5377;43.276;26.930;2023-04-07T09:03:07;99018.41;;;11.96;36.96
10658;BME280;5377;43.276;26.930;2023-04-07T09:05:34;99026.81;;;12.06;36.64
10658;BME280;5377;43.276;26.930;2023-04-07T09:08:01;99023.31;;;12.06;36.80
10658;BME280;5377;43.276;26.930;2023-04-07T09:10:28;99025.19;;;11.99;37.10
10658;BME280;5377;43.276;26.930;2023-04-07T09:12:58;99021.50;;;12.31;37.64
10658;BME280;5377;43.276;26.930;2023-04-07T09:15:29;99020.34;;;12.21;37.75
10658;BME280;5377;43.276;26.930;2023-04-07T09:17:57;99036.72;;;12.06;38.15
10658;BME280;5377;43.276;26.930;2023-04-07T09:20:24;99035.25;;;12.10;38.62
10658;BME280;5377;43.276;26.930;2023-04-07T09:22:51;99027.50;;;12.33;38.44
10658;BME280;5377;43.276;26.930;2023-04-07T09:25:19;99038.06;;;12.28;38.75
10658;BME280;5377;43.276;26.930;2023-04-07T09:27:55;99032.84;;;12.33;38.02
10658;BME280;5377;43.276;26.930;2023-04-07T09:30:24;99038.84;;;12.35;38.42
10658;BME280;5377;43.276;26.930;2023-04-07T09:32:51;99041.56;;;11.77;38.76
10658;BME280;5377;43.276;26.930;2023-04-07T09:35:18;99035.84;;;11.80;39.54
10658;BME280;5377;43.276;26.930;2023-04-07T09:38:00;99036.66;;;11.68;39.67
10658;BME280;5377;43.276;26.930;2023-04-07T09:40:27;99034.63;;;11.56;39.39
10658;BME280;5377;43.276;26.930;2023-04-07T09:42:54;99043.66;;;11.82;39.77
10658;BME280;5377;43.276;26.930;2023-04-07T09:45:24;99038.06;;;12.28;39.90
10658;BME280;5377;43.276;26.930;2023-04-07T09:47:52;99022.38;;;12.81;38.61
10658;BME280;5377;43.276;26.930;2023-04-07T09:50:30;99022.31;;;14.04;36.88
10658;BME280;5377;43.276;26.930;2023-04-07T09:52:59;99008.84;;;15.23;35.73
10658;BME280;5377;43.276;26.930;2023-04-07T09:55:27;99008.59;;;15.59;33.94
10658;BME280;5377;43.276;26.930;2023-04-07T09:57:54;99006.22;;;16.15;32.75
10658;BME280;5377;43.276;26.930;2023-04-07T10:00:21;99013.00;;;15.89;32.87
10658;BME280;5377;43.276;26.930;2023-04-07T10:02:50;99013.63;;;16.36;31.69
10658;BME280;5377;43.276;26.930;2023-04-07T10:05:17;99007.19;;;17.21;32.19
10658;BME280;5377;43.276;26.930;2023-04-07T10:07:46;99006.31;;;16.99;31.42
10658;BME280;5377;43.276;26.930;2023-04-07T10:10:13;99002.22;;;16.96;31.21
10658;BME280;5377;43.276;26.930;2023-04-07T10:12:40;99013.69;;;16.87;31.51
10658;BME280;5377;43.276;26.930;2023-04-07T10:15:11;99013.72;;;16.58;31.52
10658;BME280;5377;43.276;26.930;2023-04-07T10:17:39;99004.16;;;16.50;32.26
10658;BME280;5377;43.276;26.930;2023-04-07T10:20:09;99013.00;;;16.17;31.93
10658;BME280;5377;43.276;26.930;2023-04-07T10:22:37;99004.34;;;15.75;32.02
10658;BME280;5377;43.276;26.930;2023-04-07T10:25:07;98999.41;;;16.58;32.12
10658;BME280;5377;43.276;26.930;2023-04-07T10:27:39;98999.72;;;16.44;31.73
10658;BME280;5377;43.276;26.930;2023-04-07T11:27:11;98999.38;;;16.41;31.43
10658;BME280;5377;43.276;26.930;2023-04-07T11:29:38;99006.88;;;15.30;32.84
10658;BME280;5377;43.276;26.930;2023-04-07T11:32:05;99001.56;;;15.23;32.92
10658;BME280;5377;43.276;26.930;2023-04-07T11:34:33;99007.44;;;14.85;33.21
10658;BME280;5377;43.276;26.930;2023-04-07T11:37:18;99000.41;;;14.31;34.45
10658;BME280;5377;43.276;26.930;2023-04-07T11:39:50;99011.19;;;14.01;35.63
10658;BME280;5377;43.276;26.930;2023-04-07T11:42:32;99011.16;;;13.53;35.12
10658;BME280;5377;43.276;26.930;2023-04-07T11:44:59;99020.34;;;13.45;35.92
10658;BME280;5377;43.276;26.930;2023-04-07T11:47:33;99010.00;;;13.97;34.84
10658;BME280;5377;43.276;26.930;2023-04-07T11:50:00;99012.50;;;15.17;33.58
10658;BME280;5377;43.276;26.930;2023-04-07T11:52:27;98998.56;;;16.57;31.26
10658;BME280;5377;43.276;26.930;2023-04-07T11:54:54;98996.63;;;16.24;32.13
10658;BME280;5377;43.276;26.930;2023-04-07T11:57:24;98982.25;;;17.36;31.67
10658;BME280;5377;43.276;26.930;2023-04-07T12:00:05;98987.97;;;18.32;29.77
10658;BME280;5377;43.276;26.930;2023-04-07T12:02:33;98990.75;;;18.10;29.29
10658;BME280;5377;43.276;26.930;2023-04-07T12:05:00;98989.78;;;17.72;30.04
10658;BME280;5377;43.276;26.930;2023-04-07T12:07:27;98991.22;;;18.88;29.34
10658;BME280;5377;43.276;26.930;2023-04-07T12:09:54;98988.59;;;18.12;28.91
10658;BME280;5377;43.276;26.930;2023-04-07T12:12:25;98997.31;;;16.76;30.16
10658;BME280;5377;43.276;26.930;2023-04-07T12:14:53;99001.94;;;15.62;31.70
10658;BME280;5377;43.276;26.930;2023-04-07T12:17:22;99007.72;;;15.82;31.75
10658;BME280;5377;43.276;26.930;2023-04-07T12:19:49;99003.22;;;16.00;31.96
10658;BME280;5377;43.276;26.930;2023-04-07T12:22:16;99004.56;;;16.14;31.66
10658;BME280;5377;43.276;26.930;2023-04-07T12:24:42;98995.09;;;17.45;31.28
10658;BME280;5377;43.276;26.930;2023-04-07T12:27:09;98956.28;;;19.01;29.38
10658;BME280;5377;43.276;26.930;2023-04-07T12:29:36;98946.69;;;19.83;27.80
10658;BME280;5377;43.276;26.930;2023-04-07T12:32:03;98985.91;;;19.45;27.60
10658;BME280;5377;43.276;26.930;2023-04-07T12:34:31;98984.66;;;18.79;28.34
10658;BME280;5377;43.276;26.930;2023-04-07T12:37:01;98992.69;;;18.15;29.22
10658;BME280;5377;43.276;26.930;2023-04-07T12:39:28;98988.06;;;17.88;29.92
10658;BME280;5377;43.276;26.930;2023-04-07T12:41:55;98986.81;;;17.74;30.47
10658;BME280;5377;43.276;26.930;2023-04-07T12:44:22;98993.78;;;17.92;30.07
10658;BME280;5377;43.276;26.930;2023-04-07T12:46:49;98996.47;;;16.93;31.25
10658;BME280;5377;43.276;26.930;2023-04-07T12:49:16;98993.19;;;16.91;31.52
10658;BME280;5377;43.276;26.930;2023-04-07T12:51:44;98976.72;;;17.91;30.43
10658;BME280;5377;43.276;26.930;2023-04-07T12:54:11;98979.19;;;19.58;29.62
10658;BME280;5377;43.276;26.930;2023-04-07T12:56:38;98980.75;;;20.16;28.30
10658;BME280;5377;43.276;26.930;2023-04-07T12:59:06;98980.03;;;17.98;29.89
10658;BME280;5377;43.276;26.930;2023-04-07T13:01:34;98988.28;;;17.65;31.21
10658;BME280;5377;43.276;26.930;2023-04-07T13:04:01;98983.50;;;16.61;32.12
10658;BME280;5377;43.276;26.930;2023-04-07T13:06:28;98979.97;;;16.61;32.31
10658;BME280;5377;43.276;26.930;2023-04-07T13:08:56;98990.81;;;16.15;33.15
10658;BME280;5377;43.276;26.930;2023-04-07T13:24:21;99002.88;;;14.32;36.86
10658;BME280;5377;43.276;26.930;2023-04-07T13:26:49;99007.47;;;14.14;37.66
10658;BME280;5377;43.276;26.930;2023-04-07T13:29:16;99011.50;;;13.93;38.31
10658;BME280;5377;43.276;26.930;2023-04-07T13:31:44;99008.16;;;13.79;38.33
10658;BME280;5377;43.276;26.930;2023-04-07T13:34:11;99010.78;;;13.67;39.40
10658;BME280;5377;43.276;26.930;2023-04-07T13:36:37;99010.47;;;13.39;39.43
10658;BME280;5377;43.276;26.930;2023-04-07T13:39:04;99013.97;;;13.76;39.43
10658;BME280;5377;43.276;26.930;2023-04-07T13:41:33;99006.16;;;14.34;38.40
10658;BME280;5377;43.276;26.930;2023-04-07T13:43:59;99014.59;;;14.80;38.01
10658;BME280;5377;43.276;26.930;2023-04-07T13:46:27;99005.69;;;14.79;37.83
10658;BME280;5377;43.276;26.930;2023-04-07T13:48:54;99008.88;;;15.00;37.88
10658;BME280;5377;43.276;26.930;2023-04-07T13:51:20;99009.19;;;14.91;38.26
10658;BME280;5377;43.276;26.930;2023-04-07T13:53:47;99011.84;;;14.56;38.68
10658;BME280;5377;43.276;26.930;2023-04-07T13:56:14;99010.03;;;14.80;38.80
10658;BME280;5377;43.276;26.930;2023-04-07T13:58:42;99005.81;;;14.84;38.65
10658;BME280;5377;43.276;26.930;2023-04-07T14:01:09;99013.06;;;14.30;39.31
10658;BME280;5377;43.276;26.930;2023-04-07T14:03:36;99021.53;;;13.67;40.70
10658;BME280;5377;43.276;26.930;2023-04-07T14:06:03;99021.09;;;13.34;41.13
10658;BME280;5377;43.276;26.930;2023-04-07T14:08:30;99019.06;;;13.29;41.71
10658;BME280;5377;43.276;26.930;2023-04-07T14:10:56;99028.56;;;12.82;43.28
10658;BME280;5377;43.276;26.930;2023-04-07T14:13:23;99030.09;;;12.71;43.87
10658;BME280;5377;43.276;26.930;2023-04-07T14:15:52;99030.31;;;12.70;43.62
10658;BME280;5377;43.276;26.930;2023-04-07T14:18:18;99035.88;;;12.50;43.90
10658;BME280;5377;43.276;26.930;2023-04-07T14:20:45;99043.09;;;12.49;44.01